Time;durP1;ratioP1;P1;durP2;ratioP2;P2;SDS_P1;SDS_P2;PMS_P1;PMS_P2;Temp;Humidity;BMP_temperature;BMP_pressure;BME280_temperature;BME280_humidity;BME280_pressure;Samples;Min_cycle;Max_cycle;Signal;HPM_P1;HPM_P2
2023/08/23 00:00:49;;;;;;;3.30;1.43;;;;;;;17.35;100.00;101763.03;5053802;28;20849;-78
2023/08/23 00:03:14;;;;;;;3.37;1.80;;;;;;;16.90;100.00;101711.69;5052150;28;20267;-79
2023/08/23 00:05:41;;;;;;;3.47;2.10;;;;;;;17.61;100.00;101794.53;5062233;28;20240;-78
2023/08/23 00:08:07;;;;;;;4.50;2.00;;;;;;;18.06;100.00;101866.81;5053162;28;20608;-78
2023/08/23 00:10:32;;;;;;;5.33;2.30;;;;;;;18.11;100.00;101872.41;5055210;28;20472;-78
2023/08/23 00:12:58;;;;;;;4.13;2.20;;;;;;;17.12;100.00;101714.84;5054214;28;20191;-78
2023/08/23 00:15:23;;;;;;;3.67;2.17;;;;;;;18.12;100.00;101882.19;5052087;28;20569;-78
2023/08/23 00:17:49;;;;;;;4.30;2.60;;;;;;;17.43;100.00;101770.06;5053270;28;20647;-78
2023/08/23 00:20:14;;;;;;;3.23;1.80;;;;;;;18.00;100.00;101873.13;5049658;28;20584;-79
2023/08/23 00:22:40;;;;;;;3.90;2.30;;;;;;;17.91;100.00;101856.31;5050681;28;20195;-77
2023/08/23 00:25:05;;;;;;;2.90;2.10;;;;;;;17.42;100.00;101760.28;5050914;28;20179;-79
2023/08/23 00:27:31;;;;;;;3.63;1.93;;;;;;;17.06;100.00;101745.53;5051126;28;20184;-78
2023/08/23 00:29:56;;;;;;;4.27;2.60;;;;;;;17.93;100.00;101851.47;5051515;28;20229;-79
2023/08/23 00:32:22;;;;;;;4.20;2.30;;;;;;;17.83;100.00;101864.72;5050068;28;20738;-78
2023/08/23 00:34:47;;;;;;;3.57;2.40;;;;;;;17.76;100.00;101851.19;5053770;28;21211;-78
2023/08/23 00:37:12;;;;;;;4.23;2.40;;;;;;;17.61;100.00;101837.09;5053547;28;20194;-78
2023/08/23 00:39:38;;;;;;;3.90;2.43;;;;;;;17.27;100.00;101790.44;5054229;28;20206;-78
2023/08/23 00:42:03;;;;;;;3.97;2.40;;;;;;;17.74;100.00;101857.88;5049033;28;20807;-78
2023/08/23 00:44:29;;;;;;;3.70;2.57;;;;;;;17.93;100.00;101864.19;5049899;28;20551;-78
2023/08/23 00:46:54;;;;;;;3.70;2.60;;;;;;;17.90;100.00;101859.22;5051815;28;20290;-78
2023/08/23 00:49:21;;;;;;;4.20;2.40;;;;;;;17.13;100.00;101761.78;5052657;28;20235;-78
2023/08/23 00:51:47;;;;;;;5.07;2.13;;;;;;;17.55;100.00;101808.16;5053976;28;20187;-79
2023/08/23 00:54:13;;;;;;;4.53;2.43;;;;;;;17.91;100.00;101875.31;5052652;28;20468;-78
2023/08/23 00:56:39;;;;;;;5.57;2.97;;;;;;;17.61;100.00;101872.38;5051056;28;20438;-78
2023/08/23 00:59:06;;;;;;;7.07;3.40;;;;;;;17.54;100.00;101849.91;5049418;28;20196;-78
2023/08/23 01:01:32;;;;;;;5.30;3.33;;;;;;;17.71;100.00;101840.16;5050082;28;20187;-78
2023/08/23 01:03:57;;;;;;;5.13;2.90;;;;;;;17.79;100.00;101860.78;5052406;28;20422;-79
2023/08/23 01:06:32;;;;;;;5.70;3.47;;;;;;;17.80;100.00;101865.16;5050365;28;20258;-78
2023/08/23 01:09:14;;;;;;;6.70;4.40;;;;;;;17.05;100.00;101783.72;5049705;28;20229;-77
2023/08/23 01:11:50;;;;;;;6.50;4.30;;;;;;;17.28;100.00;101867.19;5052075;28;20527;-78
2023/08/23 01:14:25;;;;;;;4.87;3.70;;;;;;;16.45;100.00;101727.97;5049741;28;20821;-79
2023/08/23 01:16:51;;;;;;;7.83;4.27;;;;;;;16.68;100.00;101807.84;5060261;28;21036;-78
2023/08/23 01:19:40;;;;;;;7.60;4.50;;;;;;;16.89;100.00;101799.47;5050067;28;20461;-78
2023/08/23 01:22:06;;;;;;;6.97;4.97;;;;;;;17.24;100.00;101845.13;5054611;28;20440;-78
2023/08/23 01:24:32;;;;;;;6.47;4.90;;;;;;;17.32;100.00;101844.81;5053151;28;20430;-78
2023/08/23 01:26:58;;;;;;;8.20;4.80;;;;;;;16.90;100.00;101765.88;5051506;28;20426;-78
2023/08/23 01:29:23;;;;;;;7.37;4.70;;;;;;;17.41;100.00;101831.81;5053361;28;20477;-78
2023/08/23 01:31:54;;;;;;;5.40;4.43;;;;;;;16.77;100.00;101757.00;5051420;28;20190;-78
2023/08/23 01:34:27;;;;;;;7.60;4.87;;;;;;;17.70;100.00;101830.34;5050503;28;20198;-78
2023/08/23 01:36:54;;;;;;;6.93;5.23;;;;;;;16.93;100.00;101757.31;5057254;28;20426;-79
2023/08/23 01:39:24;;;;;;;8.70;5.57;;;;;;;16.46;100.00;101734.19;5060620;28;20450;-78
2023/08/23 01:41:50;;;;;;;6.57;5.67;;;;;;;16.56;100.00;101804.16;5048730;28;20463;-78
2023/08/23 01:44:16;;;;;;;5.57;4.37;;;;;;;16.90;100.00;101784.84;5053438;28;20468;-78
2023/08/23 01:46:41;;;;;;;7.00;4.40;;;;;;;17.43;100.00;101859.56;5051804;28;20469;-78
2023/08/23 01:49:06;;;;;;;6.33;5.60;;;;;;;17.26;100.00;101842.16;5052986;28;20214;-78
2023/08/23 01:51:32;;;;;;;7.10;5.50;;;;;;;17.47;100.00;101868.91;5054605;28;20663;-78
2023/08/23 01:53:57;;;;;;;7.73;4.97;;;;;;;17.50;100.00;101851.38;5049156;28;20226;-78
2023/08/23 01:56:23;;;;;;;6.60;5.50;;;;;;;17.47;100.00;101860.78;5048164;28;20190;-78
2023/08/23 01:58:48;;;;;;;9.50;5.90;;;;;;;16.63;100.00;101729.13;5050498;28;20187;-78
2023/08/23 02:01:14;;;;;;;6.90;5.40;;;;;;;17.28;100.00;101875.31;5050918;28;20588;-78
2023/08/23 02:03:39;;;;;;;8.90;5.30;;;;;;;17.19;100.00;101828.66;5050974;28;20179;-78
2023/08/23 02:06:04;;;;;;;6.17;5.13;;;;;;;16.55;100.00;101749.19;5049536;28;20187;-78
2023/08/23 02:08:30;;;;;;;5.53;4.90;;;;;;;17.15;100.00;101851.81;5046703;28;20885;-78
2023/08/23 02:10:55;;;;;;;6.27;4.90;;;;;;;17.18;100.00;101892.03;5050562;28;20210;-78
2023/08/23 02:13:21;;;;;;;6.10;4.70;;;;;;;17.27;100.00;101887.19;5050326;28;20194;-78
2023/08/23 02:15:47;;;;;;;6.23;4.80;;;;;;;16.49;100.00;101774.41;5050994;28;20233;-78
2023/08/23 02:18:13;;;;;;;7.93;5.60;;;;;;;16.04;100.00;101723.75;5048664;28;20183;-78
2023/08/23 02:20:38;;;;;;;8.23;6.10;;;;;;;17.32;100.00;101892.81;5053494;28;20829;-78
2023/08/23 02:23:03;;;;;;;6.83;5.70;;;;;;;16.79;100.00;101803.69;5050860;28;20537;-78
2023/08/23 02:25:29;;;;;;;6.03;5.30;;;;;;;17.02;100.00;101896.09;5057986;28;20187;-78
2023/08/23 02:27:54;;;;;;;7.33;5.83;;;;;;;16.23;100.00;101749.09;5049195;28;20187;-79
2023/08/23 02:30:20;;;;;;;7.70;5.67;;;;;;;17.09;100.00;101888.75;5051908;28;20207;-79
2023/08/23 02:32:45;;;;;;;9.43;5.53;;;;;;;16.99;100.00;101871.31;5051476;28;20202;-78
2023/08/23 02:35:10;;;;;;;8.00;6.20;;;;;;;17.05;100.00;101887.53;5051920;28;20583;-78
2023/08/23 02:37:36;;;;;;;6.43;5.40;;;;;;;16.85;100.00;101859.69;5050965;28;20180;-78
2023/08/23 02:40:03;;;;;;;7.37;5.77;;;;;;;16.97;100.00;101859.84;5054398;28;20685;-78
2023/08/23 02:42:29;;;;;;;7.57;5.73;;;;;;;17.05;100.00;101875.88;5048343;28;20179;-78
2023/08/23 02:44:54;;;;;;;7.83;6.33;;;;;;;16.79;100.00;101866.00;5048732;28;20434;-78
2023/08/23 02:47:19;;;;;;;7.37;6.47;;;;;;;16.01;100.00;101740.44;5047643;28;20240;-78
2023/08/23 02:49:45;;;;;;;7.30;6.17;;;;;;;16.64;100.00;101804.75;5049376;28;20250;-78
2023/08/23 02:52:10;;;;;;;6.53;5.63;;;;;;;16.50;100.00;101722.72;5050106;28;20195;-78
2023/08/23 02:54:36;;;;;;;9.00;6.30;;;;;;;16.63;100.00;101759.72;5047711;28;20561;-78
2023/08/23 02:57:01;;;;;;;7.47;6.10;;;;;;;16.86;100.00;101804.47;5050601;28;20195;-78
2023/08/23 02:59:26;;;;;;;7.27;6.20;;;;;;;16.99;100.00;101817.13;5049847;28;20191;-78
2023/08/23 03:01:52;;;;;;;6.83;5.93;;;;;;;16.30;100.00;101721.19;5048947;28;20284;-78
2023/08/23 03:04:17;;;;;;;9.10;6.40;;;;;;;16.20;100.00;101710.78;5049606;28;20267;-78
2023/08/23 03:06:43;;;;;;;8.40;6.10;;;;;;;16.37;100.00;101751.75;5050313;28;20188;-78
2023/08/23 03:09:08;;;;;;;8.00;5.77;;;;;;;16.98;100.00;101842.53;5052699;28;20215;-78
2023/08/23 03:11:33;;;;;;;6.20;5.50;;;;;;;16.63;100.00;101813.09;5052742;28;20188;-78
2023/08/23 03:13:59;;;;;;;7.47;6.10;;;;;;;17.06;100.00;101850.41;5052887;28;20180;-78
2023/08/23 03:16:24;;;;;;;9.50;5.80;;;;;;;16.85;100.00;101846.16;5053117;28;20619;-79
2023/08/23 03:18:50;;;;;;;7.30;6.60;;;;;;;16.85;100.00;101844.28;5051534;28;20187;-78
2023/08/23 03:21:15;;;;;;;6.83;5.77;;;;;;;16.94;100.00;101845.69;5054052;28;20245;-79
2023/08/23 03:23:40;;;;;;;8.03;6.33;;;;;;;17.07;100.00;101861.06;5053280;28;20577;-79
2023/08/23 03:26:06;;;;;;;7.43;5.90;;;;;;;16.70;100.00;101822.84;5052325;28;20198;-78
2023/08/23 03:28:31;;;;;;;9.27;6.87;;;;;;;17.11;100.00;101861.44;5053095;28;20184;-78
2023/08/23 03:31:02;;;;;;;7.27;6.37;;;;;;;17.00;100.00;101856.72;5050514;28;20203;-78
2023/08/23 03:33:27;;;;;;;7.30;5.57;;;;;;;16.68;100.00;101853.91;5052624;28;20172;-78
2023/08/23 03:35:53;;;;;;;7.20;5.90;;;;;;;16.46;100.00;101797.34;5052136;28;20426;-78
2023/08/23 03:38:19;;;;;;;6.57;5.87;;;;;;;16.78;100.00;101843.50;5050675;28;20179;-78
2023/08/23 03:40:44;;;;;;;7.67;6.33;;;;;;;16.23;100.00;101740.16;5052469;28;20207;-78
2023/08/23 03:43:09;;;;;;;7.67;5.73;;;;;;;16.73;100.00;101849.50;5051372;28;20190;-78
2023/08/23 03:45:35;;;;;;;11.00;6.60;;;;;;;16.83;100.00;101843.66;5053272;28;20183;-78
2023/08/23 03:48:01;;;;;;;11.10;6.67;;;;;;;16.82;100.00;101850.13;5051693;28;20180;-78
2023/08/23 03:50:26;;;;;;;9.50;6.70;;;;;;;16.68;100.00;101814.09;5056775;28;20207;-77
2023/08/23 03:52:51;;;;;;;7.83;6.80;;;;;;;17.10;100.00;101863.34;5054065;28;20183;-77
2023/08/23 03:55:17;;;;;;;8.00;5.67;;;;;;;17.24;100.00;101868.66;5053493;28;20193;-77
2023/08/23 03:57:42;;;;;;;7.60;5.73;;;;;;;17.15;100.00;101871.66;5052682;28;20209;-78
2023/08/23 04:00:08;;;;;;;9.73;6.30;;;;;;;16.25;100.00;101748.88;5055140;28;20200;-77
2023/08/23 04:02:34;;;;;;;8.13;5.67;;;;;;;17.17;100.00;101869.53;5052106;28;20179;-78
2023/08/23 04:05:02;;;;;;;6.80;5.50;;;;;;;17.09;100.00;101861.66;5051195;28;20430;-77
2023/08/23 04:07:27;;;;;;;6.60;4.70;;;;;;;16.98;100.00;101859.66;5051593;28;20179;-77
2023/08/23 04:09:53;;;;;;;6.63;5.03;;;;;;;17.02;100.00;101876.31;5053417;28;20519;-78
2023/08/23 04:12:18;;;;;;;5.90;4.63;;;;;;;16.78;100.00;101829.09;5052203;28;20230;-77
2023/08/23 04:14:44;;;;;;;7.70;5.30;;;;;;;16.90;100.00;101855.31;5054925;28;20718;-77
2023/08/23 04:17:09;;;;;;;6.60;4.77;;;;;;;16.88;100.00;101838.41;5050599;28;20828;-77
2023/08/23 04:19:34;;;;;;;8.00;5.97;;;;;;;16.01;100.00;101740.44;5047076;22;20283;-76
2023/08/23 04:22:00;;;;;;;9.63;6.87;;;;;;;14.07;100.00;101461.72;5028942;28;20185;-75
2023/08/23 04:24:25;;;;;;;7.43;5.80;;;;;;;15.06;100.00;101585.03;5033408;28;20194;-75
2023/08/23 04:26:51;;;;;;;9.03;7.17;;;;;;;15.87;100.00;101740.69;5030377;28;20184;-76
2023/08/23 04:29:16;;;;;;;8.40;6.90;;;;;;;14.72;100.00;101554.53;5031415;28;20355;-75
2023/08/23 04:31:42;;;;;;;9.17;7.27;;;;;;;15.70;100.00;101741.13;5029199;28;20559;-76
2023/08/23 04:34:08;;;;;;;9.30;7.17;;;;;;;16.18;100.00;101729.13;5030521;28;20194;-75
2023/08/23 04:36:33;;;;;;;6.53;5.80;;;;;;;14.74;100.00;101516.53;5030688;28;20298;-75
2023/08/23 04:38:59;;;;;;;8.73;6.60;;;;;;;15.58;100.00;101678.72;5031401;28;20204;-77
2023/08/23 04:41:24;;;;;;;11.17;6.97;;;;;;;14.00;100.00;101413.13;5030995;28;20175;-77
2023/08/23 04:43:49;;;;;;;11.90;7.80;;;;;;;14.69;100.00;101596.31;5030991;28;20653;-78
2023/08/23 04:46:16;;;;;;;8.10;6.33;;;;;;;15.02;100.00;101611.66;5032110;28;20185;-77
2023/08/23 04:48:41;;;;;;;9.97;6.57;;;;;;;14.84;100.00;101573.63;5030589;28;20212;-77
2023/08/23 04:51:09;;;;;;;14.67;8.93;;;;;;;14.48;100.00;101526.28;5030538;28;20808;-77
2023/08/23 04:53:35;;;;;;;9.10;6.83;;;;;;;14.73;100.00;101571.59;5030224;28;20180;-78
2023/08/23 04:56:01;;;;;;;9.87;7.23;;;;;;;15.49;100.00;101757.56;5032020;28;20493;-77
2023/08/23 04:58:30;;;;;;;9.60;7.10;;;;;;;14.98;100.00;101636.59;5041407;28;20455;-77
2023/08/23 05:00:59;;;;;;;9.70;7.27;;;;;;;17.21;100.00;101964.81;5032810;28;20995;-78
2023/08/23 05:03:25;;;;;;;9.90;8.40;;;;;;;15.09;100.00;101671.91;5033547;28;20910;-77
2023/08/23 05:05:52;;;;;;;10.23;7.77;;;;;;;15.37;100.00;101722.22;5028684;28;20466;-77
2023/08/23 05:08:17;;;;;;;9.80;7.90;;;;;;;15.59;100.00;101768.78;5028347;28;20466;-78
2023/08/23 05:10:43;;;;;;;10.93;7.83;;;;;;;14.66;100.00;101698.47;5029023;28;20549;-78
2023/08/23 05:13:09;;;;;;;10.73;7.40;;;;;;;14.61;100.00;101646.94;5029743;28;20184;-77
2023/08/23 05:15:34;;;;;;;13.70;8.60;;;;;;;16.09;100.00;101926.13;5029770;28;20195;-77
2023/08/23 05:18:00;;;;;;;11.27;7.20;;;;;;;15.34;100.00;101833.47;5029711;28;20828;-78
2023/08/23 05:20:25;;;;;;;15.73;7.77;;;;;;;14.79;100.00;101735.50;5032900;28;20288;-78
2023/08/23 05:22:50;;;;;;;10.50;8.03;;;;;;;14.85;100.00;101761.69;5038618;28;20179;-78
2023/08/23 05:25:16;;;;;;;12.77;8.67;;;;;;;15.38;100.00;101799.56;5030278;28;20656;-78
2023/08/23 05:27:42;;;;;;;11.50;7.67;;;;;;;15.08;100.00;101785.63;5029616;28;20563;-78
2023/08/23 05:30:08;;;;;;;11.00;8.07;;;;;;;14.47;100.00;101671.19;5029784;28;20219;-78
2023/08/23 05:32:34;;;;;;;13.50;8.70;;;;;;;14.97;100.00;101794.31;5029690;28;20250;-78
2023/08/23 05:34:59;;;;;;;12.10;8.43;;;;;;;14.50;100.00;101631.34;5031158;28;20947;-78
2023/08/23 05:37:25;;;;;;;11.70;8.10;;;;;;;17.09;100.00;102085.81;5035434;28;20245;-77
2023/08/23 05:39:50;;;;;;;12.83;8.00;;;;;;;14.51;100.00;101674.31;5030349;28;20215;-78
2023/08/23 05:42:16;;;;;;;14.73;8.30;;;;;;;15.29;100.00;101806.22;5030439;28;20186;-78
2023/08/23 05:44:41;;;;;;;13.37;8.57;;;;;;;15.53;100.00;101866.94;5027679;28;20187;-78
2023/08/23 05:47:07;;;;;;;16.23;8.57;;;;;;;15.64;100.00;101828.47;5030109;28;20645;-78
2023/08/23 05:49:32;;;;;;;9.07;6.97;;;;;;;14.40;100.00;101748.63;5030506;28;20212;-77
2023/08/23 05:51:57;;;;;;;9.53;7.23;;;;;;;14.52;100.00;101775.88;5030433;28;20286;-78
2023/08/23 05:54:24;;;;;;;11.17;7.30;;;;;;;15.58;100.00;101930.19;5031188;28;20185;-79
2023/08/23 05:56:49;;;;;;;11.20;7.50;;;;;;;15.30;100.00;101876.28;5027418;28;20214;-78
2023/08/23 05:59:15;;;;;;;11.80;7.53;;;;;;;16.01;100.00;101877.59;5026701;28;20466;-79
2023/08/23 06:01:40;;;;;;;12.70;7.63;;;;;;;15.31;100.00;101891.47;5027861;28;20298;-77
2023/08/23 06:04:06;;;;;;;11.80;7.00;;;;;;;15.55;100.00;101879.22;5030709;28;20253;-78
2023/08/23 06:06:32;;;;;;;11.93;7.90;;;;;;;15.46;100.00;101868.81;5029929;28;20606;-78
2023/08/23 06:08:59;;;;;;;15.27;8.50;;;;;;;14.36;100.00;101617.00;5032153;28;20729;-78
2023/08/23 06:11:24;;;;;;;9.93;7.00;;;;;;;14.40;100.00;101623.63;5028939;28;20492;-78
2023/08/23 06:13:50;;;;;;;13.80;8.87;;;;;;;15.79;100.00;101891.38;5030680;28;20443;-78
2023/08/23 06:16:15;;;;;;;11.63;8.37;;;;;;;15.04;100.00;101776.25;5028486;28;20180;-78
2023/08/23 06:18:41;;;;;;;10.10;7.60;;;;;;;17.68;100.00;102158.06;5030712;28;20216;-78
2023/08/23 06:21:06;;;;;;;15.00;9.50;;;;;;;15.25;100.00;101742.81;5030544;28;20175;-78
2023/08/23 06:23:32;;;;;;;13.40;8.57;;;;;;;16.25;100.00;101860.69;5031021;28;20189;-78
2023/08/23 06:25:58;;;;;;;15.63;9.60;;;;;;;14.99;100.00;101649.06;5032274;28;20172;-78
2023/08/23 06:28:24;;;;;;;12.30;7.90;;;;;;;16.65;100.00;101895.78;5030101;28;20281;-78
2023/08/23 06:30:49;;;;;;;12.67;8.80;;;;;;;15.78;100.00;101740.06;5030186;28;20466;-77
2023/08/23 06:33:15;;;;;;;13.00;8.90;;;;;;;16.07;100.00;101808.28;5029936;28;20552;-77
2023/08/23 06:35:40;;;;;;;11.30;7.67;;;;;;;15.41;100.00;101704.53;5029401;28;20337;-78
2023/08/23 06:38:06;;;;;;;13.70;8.53;;;;;;;16.19;100.00;101782.22;5031711;28;20181;-78
2023/08/23 06:40:31;;;;;;;16.23;10.57;;;;;;;15.56;100.00;101694.34;5032454;28;20184;-78
2023/08/23 06:42:57;;;;;;;12.70;8.70;;;;;;;16.97;100.00;101886.97;5033734;28;20190;-78
2023/08/23 06:45:22;;;;;;;16.23;9.67;;;;;;;15.44;100.00;101679.78;5033681;28;20207;-78
2023/08/23 06:47:49;;;;;;;15.57;9.70;;;;;;;15.11;100.00;101571.75;5032493;28;20188;-78
2023/08/23 06:50:14;;;;;;;12.03;8.80;;;;;;;17.71;100.00;102030.09;5041455;28;20262;-78
2023/08/23 06:52:40;;;;;;;16.03;8.23;;;;;;;15.43;100.00;101563.75;5031277;28;20434;-78
2023/08/23 06:55:06;;;;;;;17.93;9.83;;;;;;;15.02;100.00;101532.47;5034600;28;20188;-79
2023/08/23 06:57:31;;;;;;;17.53;10.20;;;;;;;15.60;100.00;101609.03;5035574;28;20270;-78
2023/08/23 06:59:58;;;;;;;14.73;10.30;;;;;;;17.05;100.00;101822.50;5033486;28;20451;-78
2023/08/23 07:02:25;;;;;;;11.23;8.00;;;;;;;17.34;100.00;101853.59;5033522;28;20211;-79
2023/08/23 07:04:52;;;;;;;11.47;8.50;;;;;;;17.99;100.00;101915.75;5037200;28;20438;-78
2023/08/23 07:07:20;;;;;;;10.20;8.47;;;;;;;17.60;100.00;101881.56;5033309;28;20484;-78
2023/08/23 07:09:46;;;;;;;10.50;7.50;;;;;;;17.62;100.00;101855.06;5032084;28;20467;-78
2023/08/23 07:12:11;;;;;;;9.70;7.63;;;;;;;18.11;100.00;101902.28;5033225;28;20426;-78
2023/08/23 07:14:37;;;;;;;15.13;10.17;;;;;;;18.15;100.00;101903.47;5033314;28;20643;-78
2023/08/23 07:17:02;;;;;;;11.90;7.70;;;;;;;17.82;100.00;101855.75;5032645;28;20254;-78
2023/08/23 07:19:28;;;;;;;12.53;9.00;;;;;;;17.98;100.00;101864.38;5034575;28;20256;-78
2023/08/23 07:21:53;;;;;;;17.67;11.60;;;;;;;18.24;100.00;101901.28;5032496;28;20188;-78
2023/08/23 07:24:18;;;;;;;14.87;10.03;;;;;;;17.43;100.00;101748.38;5035119;28;20185;-79
2023/08/23 07:26:44;;;;;;;17.07;12.17;;;;;;;17.66;100.00;101779.47;5033043;28;20644;-78
2023/08/23 07:29:11;;;;;;;17.70;13.57;;;;;;;18.01;100.00;101836.78;5036695;28;20294;-80
2023/08/23 07:31:37;;;;;;;11.80;9.77;;;;;;;18.38;100.00;101823.22;5035721;28;20564;-79
2023/08/23 07:34:02;;;;;;;15.93;10.77;;;;;;;18.13;100.00;101794.25;5032711;28;20442;-78
2023/08/23 07:36:28;;;;;;;12.10;9.90;;;;;;;17.88;100.00;101733.75;5032241;28;20637;-78
2023/08/23 07:38:53;;;;;;;15.17;10.90;;;;;;;18.11;100.00;101790.09;5033593;28;20214;-79
2023/08/23 07:41:19;;;;;;;12.13;10.47;;;;;;;17.29;100.00;101676.31;5032451;28;20734;-79
2023/08/23 07:43:44;;;;;;;14.83;12.07;;;;;;;17.12;100.00;101616.44;5044890;28;20184;-79
2023/08/23 07:46:10;;;;;;;18.10;14.30;;;;;;;15.96;100.00;101534.59;5033303;28;20184;-79
2023/08/23 07:48:35;;;;;;;15.90;12.10;;;;;;;15.74;100.00;101401.59;5033391;28;20208;-79
2023/08/23 07:51:01;;;;;;;15.97;13.00;;;;;;;16.22;100.00;101520.06;5030394;28;20279;-79
2023/08/23 07:53:27;;;;;;;16.60;13.03;;;;;;;18.75;100.00;101864.81;5032797;28;20188;-79
2023/08/23 07:55:52;;;;;;;13.97;12.23;;;;;;;18.86;100.00;101819.72;5031616;28;20449;-79
2023/08/23 07:58:18;;;;;;;17.50;13.13;;;;;;;16.23;100.00;101408.06;5030351;28;20445;-79
2023/08/23 08:00:44;;;;;;;20.17;16.20;;;;;;;17.01;100.00;101571.09;5031911;28;20184;-78
2023/08/23 08:03:09;;;;;;;16.83;13.77;;;;;;;17.49;100.00;101630.03;5033318;28;20526;-79
2023/08/23 08:05:35;;;;;;;16.03;14.30;;;;;;;17.52;100.00;101606.00;5032718;28;20176;-78
2023/08/23 08:08:02;;;;;;;14.50;13.00;;;;;;;16.98;100.00;101534.44;5035261;28;20490;-79
2023/08/23 08:10:28;;;;;;;18.43;14.20;;;;;;;17.39;100.00;101563.59;5041246;28;20274;-79
2023/08/23 08:12:54;;;;;;;17.07;14.30;;;;;;;17.95;100.00;101694.66;5034025;28;20521;-79
2023/08/23 08:15:19;;;;;;;20.30;14.53;;;;;;;18.80;100.00;101748.06;5033837;28;20435;-79
2023/08/23 08:17:46;;;;;;;20.33;15.40;;;;;;;18.01;100.00;101608.75;5032712;28;20184;-79
2023/08/23 08:20:12;;;;;;;16.47;14.10;;;;;;;16.88;100.00;101429.28;5034527;28;20211;-79
2023/08/23 08:22:37;;;;;;;14.90;10.93;;;;;;;17.24;100.00;101492.66;5033718;28;20439;-78
2023/08/23 08:25:04;;;;;;;18.23;14.17;;;;;;;17.91;100.00;101666.31;5031917;28;20445;-79
2023/08/23 08:27:30;;;;;;;15.73;13.17;;;;;;;17.53;100.00;101544.44;5032107;28;20533;-79
2023/08/23 08:29:55;;;;;;;16.70;12.63;;;;;;;17.63;100.00;101555.59;5031168;28;20473;-79
2023/08/23 08:32:21;;;;;;;17.97;12.80;;;;;;;17.61;100.00;101561.22;5033505;28;20192;-79
2023/08/23 08:34:46;;;;;;;17.30;13.43;;;;;;;17.78;100.00;101595.91;5031598;28;20191;-79
2023/08/23 08:37:12;;;;;;;18.33;11.97;;;;;;;19.02;100.00;101717.66;5032358;28;20689;-79
2023/08/23 08:39:37;;;;;;;16.80;12.63;;;;;;;18.09;100.00;101554.16;5031741;28;20200;-79
2023/08/23 08:42:03;;;;;;;15.27;12.83;;;;;;;17.86;100.00;101554.06;5043588;28;20192;-79
2023/08/23 08:44:29;;;;;;;16.20;11.93;;;;;;;17.82;100.00;101538.25;5040923;28;20260;-78
2023/08/23 08:46:55;;;;;;;17.33;11.37;;;;;;;18.42;100.00;101602.53;5031644;28;20204;-79
2023/08/23 08:49:20;;;;;;;15.00;12.43;;;;;;;17.29;100.00;101384.34;5030764;28;20506;-79
2023/08/23 08:51:47;;;;;;;14.60;10.50;;;;;;;17.67;100.00;101396.72;5031658;28;20186;-78
2023/08/23 08:54:17;;;;;;;13.40;11.50;;;;;;;17.73;100.00;101526.00;5032005;28;20192;-78
2023/08/23 08:56:47;;;;;;;13.03;11.40;;;;;;;17.48;100.00;101443.97;5032690;28;20950;-78
2023/08/23 08:59:16;;;;;;;13.10;10.93;;;;;;;19.84;100.00;101823.84;5032422;28;20457;-78
2023/08/23 09:01:46;;;;;;;11.03;8.80;;;;;;;17.65;100.00;101466.66;5040948;28;20434;-78
2023/08/23 09:04:12;;;;;;;13.13;10.10;;;;;;;18.67;100.00;101642.28;5031753;28;21023;-78
2023/08/23 09:06:38;;;;;;;13.07;10.10;;;;;;;18.70;100.00;101595.63;5031457;28;20438;-78
2023/08/23 09:09:04;;;;;;;12.07;9.07;;;;;;;19.53;100.00;101664.47;5030873;28;20223;-78
2023/08/23 09:11:32;;;;;;;10.43;8.93;;;;;;;18.26;100.00;101514.41;5030109;28;20939;-79
2023/08/23 09:13:58;;;;;;;8.00;5.93;;;;;;;19.29;100.00;101617.41;5032482;28;20696;-78
2023/08/23 09:16:24;;;;;;;11.00;8.00;;;;;;;20.74;100.00;101801.56;5031199;28;20446;-79
2023/08/23 09:18:50;;;;;;;8.67;7.07;;;;;;;19.36;100.00;101596.34;5029333;28;20216;-79
2023/08/23 09:21:19;;;;;;;11.60;7.80;;;;;;;18.57;100.00;101473.56;5031021;28;20438;-78
2023/08/23 09:23:48;;;;;;;8.63;6.03;;;;;;;18.12;100.00;101360.13;5031278;28;20458;-78
2023/08/23 09:26:14;;;;;;;8.43;5.50;;;;;;;20.07;100.00;101716.81;5030332;28;20430;-78
2023/08/23 09:28:40;;;;;;;6.80;5.53;;;;;;;18.60;100.00;101433.19;5030200;28;20508;-79
2023/08/23 09:31:09;;;;;;;8.07;6.00;;;;;;;19.49;100.00;101617.84;5030217;28;20881;-78
2023/08/23 09:33:35;;;;;;;6.13;4.00;;;;;;;19.74;100.00;101671.19;5029874;28;20181;-78
2023/08/23 09:36:01;;;;;;;6.77;4.27;;;;;;;18.82;100.00;101530.44;5029830;28;20439;-78
2023/08/23 09:38:27;;;;;;;11.73;5.43;;;;;;;20.71;100.00;101826.59;5031975;28;20506;-78
2023/08/23 09:40:54;;;;;;;6.47;3.70;;;;;;;18.85;100.00;101538.09;5032810;28;20176;-79
2023/08/23 09:43:24;;;;;;;6.77;5.50;;;;;;;20.38;100.00;101849.03;5030808;28;20474;-77
2023/08/23 09:45:50;;;;;;;6.43;4.50;;;;;;;21.18;100.00;101938.22;5040054;28;20434;-77
2023/08/23 09:48:17;;;;;;;7.40;4.00;;;;;;;19.63;100.00;101694.59;5031766;28;20426;-78
2023/08/23 09:50:43;;;;;;;6.47;3.93;;;;;;;18.61;100.00;101475.59;5031467;28;20502;-78
2023/08/23 09:53:22;;;;;;;4.70;3.80;;;;;;;20.11;100.00;101723.44;5033328;28;20462;-77
2023/08/23 09:55:48;;;;;;;7.27;4.07;;;;;;;21.41;100.00;101844.53;5030450;28;20198;-78
2023/08/23 09:58:14;;;;;;;8.83;4.60;;;;;;;21.28;100.00;101868.56;5033127;28;21023;-78
2023/08/23 10:00:40;;;;;;;8.00;5.20;;;;;;;19.36;100.00;101558.28;5032520;28;20270;-77
2023/08/23 10:03:07;;;;;;;5.60;3.93;;;;;;;20.83;100.00;101777.47;5032637;28;20573;-78
2023/08/23 10:05:34;;;;;;;5.30;3.53;;;;;;;19.58;100.00;101610.13;5033738;28;20426;-77
2023/08/23 10:08:01;;;;;;;4.20;2.70;;;;;;;20.86;100.00;101773.41;5029835;28;20975;-78
2023/08/23 10:10:30;;;;;;;6.07;4.40;;;;;;;20.46;100.00;101723.31;5034465;28;20466;-78
2023/08/23 10:13:00;;;;;;;4.50;2.93;;;;;;;20.06;100.00;101663.41;5032586;28;20504;-78
2023/08/23 10:15:31;;;;;;;5.70;3.87;;;;;;;20.15;100.00;101754.56;5031112;28;20431;-76
2023/08/23 10:17:59;;;;;;;5.60;1.90;;;;;;;19.17;100.00;101514.06;5029355;28;20446;-78
2023/08/23 10:20:25;;;;;;;4.23;2.80;;;;;;;21.97;100.00;101951.13;5030505;28;20961;-78
2023/08/23 10:22:57;;;;;;;3.73;2.17;;;;;;;21.99;100.00;101986.41;5030752;28;20461;-78
2023/08/23 10:25:22;;;;;;;8.03;2.73;;;;;;;20.41;100.00;101716.94;5038045;28;20230;-78
2023/08/23 10:27:52;;;;;;;4.80;2.20;;;;;;;21.12;100.00;101821.09;5031632;28;20471;-78
2023/08/23 10:30:24;;;;;;;4.50;2.50;;;;;;;20.82;100.00;101764.88;5031167;28;20211;-77
2023/08/23 10:32:50;;;;;;;6.90;1.80;;;;;;;21.12;100.00;101860.09;5030179;28;20480;-78
2023/08/23 10:35:38;;;;;;;4.37;2.00;;;;;;;19.63;100.00;101507.66;5034917;28;20438;-77
2023/08/23 10:38:08;;;;;;;7.30;2.13;;;;;;;21.42;100.00;101799.78;5029116;28;20291;-77
2023/08/23 10:40:35;;;;;;;5.13;3.17;;;;;;;21.31;100.00;101773.38;5031721;28;20431;-77
2023/08/23 10:43:10;;;;;;;3.83;1.87;;;;;;;20.42;100.00;101667.63;5030351;28;20500;-78
2023/08/23 10:46:19;;;;;;;4.77;2.67;;;;;;;21.93;100.00;101872.66;5031808;28;20935;-78
2023/08/23 10:48:45;;;;;;;5.40;2.57;;;;;;;22.34;100.00;101891.34;4985895;28;20456;-77
2023/08/23 10:51:11;;;;;;;3.37;2.17;;;;;;;22.55;100.00;101913.50;4991328;28;20484;-78
2023/08/23 10:53:37;;;;;;;6.50;3.07;;;;;;;22.66;100.00;101904.34;5011112;28;20445;-78
2023/08/23 10:56:03;;;;;;;5.83;1.90;;;;;;;22.86;100.00;101917.44;5029196;28;20439;-78
2023/08/23 10:58:30;;;;;;;3.60;1.93;;;;;;;22.52;100.00;101908.53;5032456;28;20204;-78
2023/08/23 11:00:56;;;;;;;3.50;2.10;;;;;;;22.59;100.00;101902.88;5029541;28;20215;-78
2023/08/23 11:03:22;;;;;;;4.70;2.03;;;;;;;22.97;100.00;101899.25;5032227;28;20473;-78
2023/08/23 11:05:48;;;;;;;4.43;2.00;;;;;;;22.37;100.00;101782.59;5029140;28;20189;-78
2023/08/23 11:08:13;;;;;;;3.80;2.00;;;;;;;22.93;100.00;101868.00;5028642;28;20565;-78